sensor_id;sensor_type;location;lat;lon;timestamp;pressure;altitude;pressure_sealevel;temperature;humidity
51099;BME280;37146;48.210;16.234;2023-03-14T00:00:30;97127.13;;;6.73;82.16
51099;BME280;37146;48.210;16.234;2023-03-14T00:02:55;97115.59;;;6.87;81.49
51099;BME280;37146;48.210;16.234;2023-03-14T00:05:20;97117.34;;;6.74;82.21
51099;BME280;37146;48.210;16.234;2023-03-14T00:07:45;97113.84;;;6.73;82.06
51099;BME280;37146;48.210;16.234;2023-03-14T00:10:12;97103.09;;;6.62;83.08
51099;BME280;37146;48.210;16.234;2023-03-14T00:12:38;97117.97;;;6.64;83.45
51099;BME280;37146;48.210;16.234;2023-03-14T00:15:04;97103.84;;;6.64;83.00
51099;BME280;37146;48.210;16.234;2023-03-14T00:17:33;97103.22;;;6.60;84.03
51099;BME280;37146;48.210;16.234;2023-03-14T00:19:58;97101.84;;;6.68;83.94
51099;BME280;37146;48.210;16.234;2023-03-14T00:22:33;97078.31;;;7.02;82.19
51099;BME280;37146;48.210;16.234;2023-03-14T00:24:58;97082.66;;;7.03;82.33
51099;BME280;37146;48.210;16.234;2023-03-14T00:27:23;97076.72;;;6.99;82.09
51099;BME280;37146;48.210;16.234;2023-03-14T00:29:48;97075.31;;;6.93;82.44
51099;BME280;37146;48.210;16.234;2023-03-14T00:32:13;97084.69;;;6.99;82.50
51099;BME280;37146;48.210;16.234;2023-03-14T00:34:39;97077.22;;;6.91;83.11
51099;BME280;37146;48.210;16.234;2023-03-14T00:37:04;97068.94;;;6.83;83.53
51099;BME280;37146;48.210;16.234;2023-03-14T00:39:30;97072.84;;;6.77;83.98
51099;BME280;37146;48.210;16.234;2023-03-14T00:41:55;97081.66;;;6.78;83.61
51099;BME280;37146;48.210;16.234;2023-03-14T00:44:20;97075.72;;;6.74;83.26
51099;BME280;37146;48.210;16.234;2023-03-14T00:46:45;97063.56;;;6.70;83.41
51099;BME280;37146;48.210;16.234;2023-03-14T00:49:11;97063.78;;;6.67;83.48
51099;BME280;37146;48.210;16.234;2023-03-14T00:51:36;97048.47;;;6.58;84.15
51099;BME280;37146;48.210;16.234;2023-03-14T00:54:01;97059.81;;;6.47;84.65
51099;BME280;37146;48.210;16.234;2023-03-14T00:56:26;97055.25;;;6.49;84.74
51099;BME280;37146;48.210;16.234;2023-03-14T00:58:55;97048.44;;;6.45;84.78
51099;BME280;37146;48.210;16.234;2023-03-14T01:01:20;97042.03;;;6.34;84.40
51099;BME280;37146;48.210;16.234;2023-03-14T01:03:46;97032.56;;;6.30;84.92
51099;BME280;37146;48.210;16.234;2023-03-14T01:06:16;97021.91;;;6.17;85.99
51099;BME280;37146;48.210;16.234;2023-03-14T01:08:41;97027.53;;;6.13;86.18
51099;BME280;37146;48.210;16.234;2023-03-14T01:11:11;97020.19;;;5.89;87.57
51099;BME280;37146;48.210;16.234;2023-03-14T01:13:37;97015.06;;;5.86;87.58
51099;BME280;37146;48.210;16.234;2023-03-14T01:16:06;97019.66;;;5.69;88.89
51099;BME280;37146;48.210;16.234;2023-03-14T01:18:32;97017.97;;;5.68;88.87
51099;BME280;37146;48.210;16.234;2023-03-14T01:20:58;97013.41;;;5.70;88.23
51099;BME280;37146;48.210;16.234;2023-03-14T01:23:23;96998.22;;;5.31;90.71
51099;BME280;37146;48.210;16.234;2023-03-14T01:25:49;97009.50;;;5.34;90.86
51099;BME280;37146;48.210;16.234;2023-03-14T01:28:14;97004.38;;;5.31;91.17
51099;BME280;37146;48.210;16.234;2023-03-14T01:30:39;97005.13;;;5.19;91.35
51099;BME280;37146;48.210;16.234;2023-03-14T01:33:04;97004.41;;;5.02;91.95
51099;BME280;37146;48.210;16.234;2023-03-14T01:35:30;96997.22;;;5.04;92.01
51099;BME280;37146;48.210;16.234;2023-03-14T01:37:55;97002.69;;;5.01;92.33
51099;BME280;37146;48.210;16.234;2023-03-14T01:40:20;96993.78;;;4.88;92.81
51099;BME280;37146;48.210;16.234;2023-03-14T01:42:55;96989.53;;;4.85;92.40
51099;BME280;37146;48.210;16.234;2023-03-14T01:48:04;97008.88;;;4.57;93.76
51099;BME280;37146;48.210;16.234;2023-03-14T01:50:29;97011.63;;;4.55;94.53
51099;BME280;37146;48.210;16.234;2023-03-14T01:52:54;97016.94;;;4.55;95.28
51099;BME280;37146;48.210;16.234;2023-03-14T01:55:21;97018.31;;;4.46;95.00
51099;BME280;37146;48.210;16.234;2023-03-14T01:57:58;97006.41;;;4.54;94.64
51099;BME280;37146;48.210;16.234;2023-03-14T02:00:26;97006.19;;;4.42;95.21
51099;BME280;37146;48.210;16.234;2023-03-14T02:02:52;97015.06;;;4.41;95.06
51099;BME280;37146;48.210;16.234;2023-03-14T02:05:21;97014.84;;;4.46;94.96
51099;BME280;37146;48.210;16.234;2023-03-14T02:07:58;97015.56;;;4.33;95.61
51099;BME280;37146;48.210;16.234;2023-03-14T02:10:25;97019.91;;;4.35;96.41
51099;BME280;37146;48.210;16.234;2023-03-14T02:12:52;97024.50;;;4.31;96.51
51099;BME280;37146;48.210;16.234;2023-03-14T02:15:18;97025.53;;;4.28;97.01
51099;BME280;37146;48.210;16.234;2023-03-14T02:17:43;97025.03;;;4.22;96.93
51099;BME280;37146;48.210;16.234;2023-03-14T02:22:38;97023.84;;;4.27;96.92
51099;BME280;37146;48.210;16.234;2023-03-14T02:27:42;97036.22;;;4.27;97.26
51099;BME280;37146;48.210;16.234;2023-03-14T02:30:09;97044.50;;;4.21;97.22
51099;BME280;37146;48.210;16.234;2023-03-14T02:32:36;97046.41;;;4.18;97.54
51099;BME280;37146;48.210;16.234;2023-03-14T02:35:06;97053.75;;;4.13;96.91
51099;BME280;37146;48.210;16.234;2023-03-14T02:37:35;97054.19;;;3.90;98.77
51099;BME280;37146;48.210;16.234;2023-03-14T02:40:01;97065.53;;;3.92;98.68
51099;BME280;37146;48.210;16.234;2023-03-14T02:42:29;97070.91;;;4.06;97.65
51099;BME280;37146;48.210;16.234;2023-03-14T02:44:59;97071.19;;;4.01;98.62
51099;BME280;37146;48.210;16.234;2023-03-14T02:47:27;97054.44;;;4.01;98.27
51099;BME280;37146;48.210;16.234;2023-03-14T02:49:53;97050.75;;;4.03;97.80
51099;BME280;37146;48.210;16.234;2023-03-14T02:52:22;97056.41;;;3.97;98.62
51099;BME280;37146;48.210;16.234;2023-03-14T02:54:47;97071.84;;;4.21;98.55
51099;BME280;37146;48.210;16.234;2023-03-14T02:57:12;97081.66;;;4.19;98.79
51099;BME280;37146;48.210;16.234;2023-03-14T02:59:37;97112.78;;;4.14;99.46
51099;BME280;37146;48.210;16.234;2023-03-14T03:02:03;97100.34;;;4.00;98.88
51099;BME280;37146;48.210;16.234;2023-03-14T03:04:28;97116.63;;;3.92;99.87
51099;BME280;37146;48.210;16.234;2023-03-14T03:06:53;97110.91;;;3.84;99.47
51099;BME280;37146;48.210;16.234;2023-03-14T03:09:18;97116.88;;;3.87;100.00
51099;BME280;37146;48.210;16.234;2023-03-14T03:11:43;97131.06;;;4.02;99.55
51099;BME280;37146;48.210;16.234;2023-03-14T03:14:09;97120.50;;;4.18;99.77
51099;BME280;37146;48.210;16.234;2023-03-14T03:16:34;97135.84;;;4.12;100.00
51099;BME280;37146;48.210;16.234;2023-03-14T03:18:59;97149.75;;;4.15;99.52
51099;BME280;37146;48.210;16.234;2023-03-14T03:21:24;97138.91;;;4.04;100.00
51099;BME280;37146;48.210;16.234;2023-03-14T03:23:50;97148.31;;;4.10;100.00
51099;BME280;37146;48.210;16.234;2023-03-14T03:26:15;97144.53;;;3.98;100.00
51099;BME280;37146;48.210;16.234;2023-03-14T03:28:40;97130.31;;;4.00;100.00
51099;BME280;37146;48.210;16.234;2023-03-14T03:31:06;97127.31;;;4.07;100.00
51099;BME280;37146;48.210;16.234;2023-03-14T03:33:32;97125.34;;;4.10;100.00
51099;BME280;37146;48.210;16.234;2023-03-14T03:35:57;97121.22;;;4.21;99.34
51099;BME280;37146;48.210;16.234;2023-03-14T03:38:22;97125.25;;;4.28;99.48
51099;BME280;37146;48.210;16.234;2023-03-14T03:40:47;97120.03;;;4.26;99.02
51099;BME280;37146;48.210;16.234;2023-03-14T03:43:12;97120.88;;;4.43;97.74
51099;BME280;37146;48.210;16.234;2023-03-14T03:45:38;97111.25;;;4.42;97.25
51099;BME280;37146;48.210;16.234;2023-03-14T03:48:03;97110.56;;;4.38;97.69
51099;BME280;37146;48.210;16.234;2023-03-14T03:50:28;97117.56;;;4.39;97.55
51099;BME280;37146;48.210;16.234;2023-03-14T03:52:54;97115.00;;;4.38;97.75
51099;BME280;37146;48.210;16.234;2023-03-14T03:55:19;97126.72;;;4.64;95.49
51099;BME280;37146;48.210;16.234;2023-03-14T03:57:44;97120.94;;;4.57;95.16
51099;BME280;37146;48.210;16.234;2023-03-14T04:00:09;97119.84;;;4.45;96.59
51099;BME280;37146;48.210;16.234;2023-03-14T04:02:36;97129.88;;;4.40;96.30
51099;BME280;37146;48.210;16.234;2023-03-14T04:05:02;97118.25;;;4.43;96.65
51099;BME280;37146;48.210;16.234;2023-03-14T04:07:27;97122.09;;;4.37;96.88
51099;BME280;37146;48.210;16.234;2023-03-14T04:09:52;97130.34;;;4.47;96.89
51099;BME280;37146;48.210;16.234;2023-03-14T04:12:18;97127.97;;;4.42;97.62
51099;BME280;37146;48.210;16.234;2023-03-14T04:14:43;97127.78;;;4.45;96.60
51099;BME280;37146;48.210;16.234;2023-03-14T04:17:08;97135.63;;;4.47;96.80
51099;BME280;37146;48.210;16.234;2023-03-14T04:19:33;97138.53;;;4.42;97.06
51099;BME280;37146;48.210;16.234;2023-03-14T04:21:59;97142.66;;;4.32;97.43
51099;BME280;37146;48.210;16.234;2023-03-14T04:24:24;97146.06;;;4.50;95.46
51099;BME280;37146;48.210;16.234;2023-03-14T04:26:49;97152.22;;;4.51;96.24
51099;BME280;37146;48.210;16.234;2023-03-14T04:29:14;97162.81;;;4.51;96.28
51099;BME280;37146;48.210;16.234;2023-03-14T04:31:40;97153.84;;;4.53;96.62
51099;BME280;37146;48.210;16.234;2023-03-14T04:34:05;97146.97;;;4.65;94.79
51099;BME280;37146;48.210;16.234;2023-03-14T04:36:30;97158.50;;;4.64;96.05
51099;BME280;37146;48.210;16.234;2023-03-14T04:38:55;97157.16;;;4.57;96.61
51099;BME280;37146;48.210;16.234;2023-03-14T04:41:20;97156.38;;;4.55;97.07
51099;BME280;37146;48.210;16.234;2023-03-14T04:43:46;97163.53;;;4.69;96.31
51099;BME280;37146;48.210;16.234;2023-03-14T04:46:11;97158.81;;;4.74;96.09
51099;BME280;37146;48.210;16.234;2023-03-14T04:48:36;97146.44;;;4.74;95.86
51099;BME280;37146;48.210;16.234;2023-03-14T04:51:03;97138.47;;;4.74;95.50
51099;BME280;37146;48.210;16.234;2023-03-14T04:53:28;97149.69;;;4.79;95.54
51099;BME280;37146;48.210;16.234;2023-03-14T04:55:54;97150.44;;;4.82;95.70
51099;BME280;37146;48.210;16.234;2023-03-14T04:58:20;97158.06;;;5.02;94.53
51099;BME280;37146;48.210;16.234;2023-03-14T05:00:45;97146.94;;;5.40;92.14
51099;BME280;37146;48.210;16.234;2023-03-14T05:03:11;97153.22;;;5.54;90.95
51099;BME280;37146;48.210;16.234;2023-03-14T05:05:36;97153.06;;;5.71;89.82
51099;BME280;37146;48.210;16.234;2023-03-14T05:08:01;97139.19;;;6.10;87.77
51099;BME280;37146;48.210;16.234;2023-03-14T05:10:27;97132.47;;;5.90;87.87
51099;BME280;37146;48.210;16.234;2023-03-14T05:12:52;97146.97;;;5.84;89.00
51099;BME280;37146;48.210;16.234;2023-03-14T05:15:17;97140.16;;;5.80;89.06
51099;BME280;37146;48.210;16.234;2023-03-14T05:17:42;97144.16;;;5.72;90.21
51099;BME280;37146;48.210;16.234;2023-03-14T05:20:08;97155.13;;;5.81;89.08
51099;BME280;37146;48.210;16.234;2023-03-14T05:22:34;97152.25;;;5.98;88.37
51099;BME280;37146;48.210;16.234;2023-03-14T05:24:59;97161.19;;;5.83;89.42
51099;BME280;37146;48.210;16.234;2023-03-14T05:27:25;97184.31;;;5.95;89.04
51099;BME280;37146;48.210;16.234;2023-03-14T05:29:50;97184.84;;;6.29;87.49
51099;BME280;37146;48.210;16.234;2023-03-14T05:32:15;97189.78;;;6.21;86.82
51099;BME280;37146;48.210;16.234;2023-03-14T05:34:40;97185.84;;;6.14;87.05
51099;BME280;37146;48.210;16.234;2023-03-14T05:37:06;97197.03;;;6.05;87.76
51099;BME280;37146;48.210;16.234;2023-03-14T05:39:32;97195.22;;;6.05;88.29
51099;BME280;37146;48.210;16.234;2023-03-14T05:41:57;97202.34;;;6.05;88.79
51099;BME280;37146;48.210;16.234;2023-03-14T05:44:22;97200.53;;;6.05;87.42
51099;BME280;37146;48.210;16.234;2023-03-14T05:46:47;97201.41;;;6.06;86.80
51099;BME280;37146;48.210;16.234;2023-03-14T05:49:13;97203.28;;;6.03;87.65
51099;BME280;37146;48.210;16.234;2023-03-14T05:51:38;97192.84;;;6.00;89.83
51099;BME280;37146;48.210;16.234;2023-03-14T05:54:03;97212.53;;;5.96;91.98
51099;BME280;37146;48.210;16.234;2023-03-14T05:56:28;97223.53;;;5.90;92.67
51099;BME280;37146;48.210;16.234;2023-03-14T05:58:53;97231.50;;;5.90;92.79
51099;BME280;37146;48.210;16.234;2023-03-14T06:01:19;97235.09;;;5.89;92.55
51099;BME280;37146;48.210;16.234;2023-03-14T06:03:44;97243.16;;;5.87;93.96
51099;BME280;37146;48.210;16.234;2023-03-14T06:06:09;97238.69;;;5.88;94.77
51099;BME280;37146;48.210;16.234;2023-03-14T06:08:34;97231.78;;;5.85;94.89
51099;BME280;37146;48.210;16.234;2023-03-14T06:10:59;97221.06;;;5.87;95.31
51099;BME280;37146;48.210;16.234;2023-03-14T06:13:27;97221.81;;;5.89;95.55
51099;BME280;37146;48.210;16.234;2023-03-14T06:15:52;97226.56;;;5.98;95.52
51099;BME280;37146;48.210;16.234;2023-03-14T06:18:17;97228.94;;;5.88;95.99
51099;BME280;37146;48.210;16.234;2023-03-14T06:20:43;97214.91;;;5.86;95.68
51099;BME280;37146;48.210;16.234;2023-03-14T06:23:08;97223.34;;;5.93;95.62
51099;BME280;37146;48.210;16.234;2023-03-14T06:25:34;97221.25;;;5.98;95.52
51099;BME280;37146;48.210;16.234;2023-03-14T06:27:59;97208.78;;;6.00;96.00
51099;BME280;37146;48.210;16.234;2023-03-14T06:30:25;97212.66;;;6.09;96.21
51099;BME280;37146;48.210;16.234;2023-03-14T06:32:50;97213.50;;;6.10;97.39
51099;BME280;37146;48.210;16.234;2023-03-14T06:35:15;97213.31;;;6.13;96.36
51099;BME280;37146;48.210;16.234;2023-03-14T06:37:40;97226.59;;;6.27;96.52
51099;BME280;37146;48.210;16.234;2023-03-14T06:40:06;97226.88;;;6.23;96.28
51099;BME280;37146;48.210;16.234;2023-03-14T06:42:32;97220.47;;;6.40;95.63
51099;BME280;37146;48.210;16.234;2023-03-14T06:44:57;97211.00;;;6.50;96.35
51099;BME280;37146;48.210;16.234;2023-03-14T06:47:23;97212.34;;;6.70;95.21
51099;BME280;37146;48.210;16.234;2023-03-14T06:49:48;97199.97;;;7.24;91.99
51099;BME280;37146;48.210;16.234;2023-03-14T06:52:13;97184.94;;;7.63;89.26
51099;BME280;37146;48.210;16.234;2023-03-14T06:54:38;97206.75;;;7.81;90.45
51099;BME280;37146;48.210;16.234;2023-03-14T06:57:03;97204.28;;;8.04;89.49
51099;BME280;37146;48.210;16.234;2023-03-14T06:59:29;97212.88;;;8.20;87.92
51099;BME280;37146;48.210;16.234;2023-03-14T07:01:54;97215.66;;;8.06;86.19
51099;BME280;37146;48.210;16.234;2023-03-14T07:04:19;97199.34;;;8.24;86.38
51099;BME280;37146;48.210;16.234;2023-03-14T07:06:44;97209.97;;;8.36;87.57
51099;BME280;37146;48.210;16.234;2023-03-14T07:09:11;97220.06;;;8.70;87.34
51099;BME280;37146;48.210;16.234;2023-03-14T07:11:37;97224.38;;;8.71;86.72
51099;BME280;37146;48.210;16.234;2023-03-14T07:14:02;97217.50;;;8.93;87.11
51099;BME280;37146;48.210;16.234;2023-03-14T07:16:27;97237.69;;;9.08;87.32
51099;BME280;37146;48.210;16.234;2023-03-14T07:18:56;97231.56;;;9.55;86.18
51099;BME280;37146;48.210;16.234;2023-03-14T07:21:21;97220.03;;;10.24;84.33
51099;BME280;37146;48.210;16.234;2023-03-14T07:23:46;97212.97;;;10.00;85.64
51099;BME280;37146;48.210;16.234;2023-03-14T07:26:12;97222.56;;;10.14;84.67
51099;BME280;37146;48.210;16.234;2023-03-14T07:28:37;97217.94;;;10.28;83.25
51099;BME280;37146;48.210;16.234;2023-03-14T07:31:02;97215.88;;;10.31;83.46
51099;BME280;37146;48.210;16.234;2023-03-14T07:33:27;97215.75;;;10.33;82.32
51099;BME280;37146;48.210;16.234;2023-03-14T07:35:52;97208.00;;;10.52;80.95
51099;BME280;37146;48.210;16.234;2023-03-14T07:38:18;97212.00;;;10.58;79.85
51099;BME280;37146;48.210;16.234;2023-03-14T07:40:43;97197.50;;;10.83;78.79
51099;BME280;37146;48.210;16.234;2023-03-14T07:43:08;97196.78;;;10.70;78.72
51099;BME280;37146;48.210;16.234;2023-03-14T07:45:33;97205.16;;;10.77;78.98
51099;BME280;37146;48.210;16.234;2023-03-14T07:47:59;97197.84;;;10.90;77.91
51099;BME280;37146;48.210;16.234;2023-03-14T07:50:24;97201.75;;;10.75;78.81
51099;BME280;37146;48.210;16.234;2023-03-14T07:52:50;97197.25;;;10.75;78.70
51099;BME280;37146;48.210;16.234;2023-03-14T07:55:15;97200.00;;;10.96;77.86
51099;BME280;37146;48.210;16.234;2023-03-14T07:57:40;97202.34;;;10.78;78.61
51099;BME280;37146;48.210;16.234;2023-03-14T08:00:06;97181.09;;;10.77;79.03
51099;BME280;37146;48.210;16.234;2023-03-14T08:02:32;97193.47;;;10.89;77.90
51099;BME280;37146;48.210;16.234;2023-03-14T08:04:57;97178.16;;;10.91;77.85
51099;BME280;37146;48.210;16.234;2023-03-14T08:07:22;97175.03;;;10.75;79.27
51099;BME280;37146;48.210;16.234;2023-03-14T08:09:47;97181.09;;;10.77;78.77
51099;BME280;37146;48.210;16.234;2023-03-14T08:12:13;97176.00;;;10.74;78.82
51099;BME280;37146;48.210;16.234;2023-03-14T08:14:38;97173.69;;;10.69;79.33
51099;BME280;37146;48.210;16.234;2023-03-14T08:17:03;97177.69;;;10.75;78.75
51099;BME280;37146;48.210;16.234;2023-03-14T08:19:29;97177.66;;;10.86;77.81
51099;BME280;37146;48.210;16.234;2023-03-14T08:21:54;97174.84;;;10.88;77.21
51099;BME280;37146;48.210;16.234;2023-03-14T08:24:20;97172.72;;;11.03;75.78
51099;BME280;37146;48.210;16.234;2023-03-14T08:26:45;97170.94;;;10.92;76.04
51099;BME280;37146;48.210;16.234;2023-03-14T08:29:10;97193.50;;;11.10;74.45
51099;BME280;37146;48.210;16.234;2023-03-14T08:31:37;97187.09;;;11.02;74.57
51099;BME280;37146;48.210;16.234;2023-03-14T08:34:03;97197.19;;;10.98;74.55
51099;BME280;37146;48.210;16.234;2023-03-14T08:36:28;97187.47;;;10.97;74.36
51099;BME280;37146;48.210;16.234;2023-03-14T08:38:53;97189.25;;;11.08;73.76
51099;BME280;37146;48.210;16.234;2023-03-14T08:41:19;97184.53;;;11.00;73.38
51099;BME280;37146;48.210;16.234;2023-03-14T08:43:44;97188.63;;;11.16;71.71
51099;BME280;37146;48.210;16.234;2023-03-14T08:46:09;97190.31;;;11.17;71.50
51099;BME280;37146;48.210;16.234;2023-03-14T08:48:34;97190.97;;;11.09;72.02
51099;BME280;37146;48.210;16.234;2023-03-14T08:51:10;97180.94;;;11.22;70.76
51099;BME280;37146;48.210;16.234;2023-03-14T08:53:36;97187.38;;;11.20;70.53
51099;BME280;37146;48.210;16.234;2023-03-14T08:56:01;97181.47;;;11.05;71.78
51099;BME280;37146;48.210;16.234;2023-03-14T08:58:26;97181.75;;;11.02;72.27
51099;BME280;37146;48.210;16.234;2023-03-14T09:00:52;97175.91;;;10.96;72.86
51099;BME280;37146;48.210;16.234;2023-03-14T09:03:17;97172.91;;;11.22;70.57
51099;BME280;37146;48.210;16.234;2023-03-14T09:05:42;97186.28;;;11.22;70.46
51099;BME280;37146;48.210;16.234;2023-03-14T09:08:07;97188.00;;;11.23;70.24
51099;BME280;37146;48.210;16.234;2023-03-14T09:10:33;97189.13;;;11.09;71.14
51099;BME280;37146;48.210;16.234;2023-03-14T09:12:58;97182.34;;;11.05;71.09
51099;BME280;37146;48.210;16.234;2023-03-14T09:15:23;97184.16;;;11.05;71.40
51099;BME280;37146;48.210;16.234;2023-03-14T09:17:49;97185.13;;;11.04;72.64
51099;BME280;37146;48.210;16.234;2023-03-14T09:20:14;97191.34;;;11.04;71.50
51099;BME280;37146;48.210;16.234;2023-03-14T09:22:39;97197.81;;;11.02;72.51
51099;BME280;37146;48.210;16.234;2023-03-14T09:25:04;97196.34;;;10.97;72.31
51099;BME280;37146;48.210;16.234;2023-03-14T09:27:30;97190.97;;;11.09;71.56
51099;BME280;37146;48.210;16.234;2023-03-14T09:29:55;97194.84;;;11.05;71.55
51099;BME280;37146;48.210;16.234;2023-03-14T09:32:20;97207.16;;;11.07;71.76
51099;BME280;37146;48.210;16.234;2023-03-14T09:34:45;97202.16;;;11.03;72.36
51099;BME280;37146;48.210;16.234;2023-03-14T09:37:11;97199.75;;;11.00;72.55
51099;BME280;37146;48.210;16.234;2023-03-14T09:39:36;97202.78;;;11.06;72.98
51099;BME280;37146;48.210;16.234;2023-03-14T09:42:02;97205.34;;;10.96;73.53
51099;BME280;37146;48.210;16.234;2023-03-14T09:44:30;97203.66;;;10.95;73.51
51099;BME280;37146;48.210;16.234;2023-03-14T09:46:57;97206.84;;;10.89;74.31
51099;BME280;37146;48.210;16.234;2023-03-14T09:49:32;97200.97;;;10.95;73.49
51099;BME280;37146;48.210;16.234;2023-03-14T09:52:00;97206.56;;;10.92;73.97
51099;BME280;37146;48.210;16.234;2023-03-14T09:54:39;97212.41;;;10.97;73.37
51099;BME280;37146;48.210;16.234;2023-03-14T09:57:10;97217.50;;;11.01;73.40
51099;BME280;37146;48.210;16.234;2023-03-14T09:59:36;97215.88;;;11.09;73.43
51099;BME280;37146;48.210;16.234;2023-03-14T10:02:10;97213.81;;;11.67;68.15
51099;BME280;37146;48.210;16.234;2023-03-14T10:04:36;97216.34;;;11.68;67.94
51099;BME280;37146;48.210;16.234;2023-03-14T10:07:07;97223.50;;;11.47;69.25
51099;BME280;37146;48.210;16.234;2023-03-14T10:09:33;97217.97;;;11.59;68.76
51099;BME280;37146;48.210;16.234;2023-03-14T10:11:58;97224.25;;;11.49;69.82
51099;BME280;37146;48.210;16.234;2023-03-14T10:14:36;97219.00;;;11.47;69.45
51099;BME280;37146;48.210;16.234;2023-03-14T10:17:06;97210.66;;;11.62;69.53
51099;BME280;37146;48.210;16.234;2023-03-14T10:19:32;97216.00;;;11.62;69.05
51099;BME280;37146;48.210;16.234;2023-03-14T10:22:00;97224.34;;;11.47;69.74
51099;BME280;37146;48.210;16.234;2023-03-14T10:26:54;97248.25;;;11.39;71.70
51099;BME280;37146;48.210;16.234;2023-03-14T10:29:20;97254.88;;;11.23;74.12
51099;BME280;37146;48.210;16.234;2023-03-14T10:31:57;97255.78;;;11.01;76.73
51099;BME280;37146;48.210;16.234;2023-03-14T10:34:28;97259.19;;;11.03;77.64
51099;BME280;37146;48.210;16.234;2023-03-14T10:36:54;97265.38;;;11.04;77.96
51099;BME280;37146;48.210;16.234;2023-03-14T10:41:48;97238.94;;;10.89;78.45
51099;BME280;37146;48.210;16.234;2023-03-14T10:44:15;97244.53;;;10.86;77.14
51099;BME280;37146;48.210;16.234;2023-03-14T10:46:42;97248.19;;;10.74;75.16
51099;BME280;37146;48.210;16.234;2023-03-14T10:49:07;97252.56;;;10.63;74.66
51099;BME280;37146;48.210;16.234;2023-03-14T10:51:33;97245.16;;;10.67;74.28
51099;BME280;37146;48.210;16.234;2023-03-14T10:54:12;97234.22;;;10.59;74.11
51099;BME280;37146;48.210;16.234;2023-03-14T10:56:37;97231.44;;;10.60;72.69
51099;BME280;37146;48.210;16.234;2023-03-14T10:59:04;97230.00;;;10.56;73.40
51099;BME280;37146;48.210;16.234;2023-03-14T11:01:35;97239.59;;;10.47;74.14
51099;BME280;37146;48.210;16.234;2023-03-14T11:09:45;97234.97;;;10.38;72.61
51099;BME280;37146;48.210;16.234;2023-03-14T11:14:47;97233.38;;;10.35;72.21
51099;BME280;37146;48.210;16.234;2023-03-14T11:17:18;97223.91;;;10.31;72.47
51099;BME280;37146;48.210;16.234;2023-03-14T11:22:33;97229.38;;;10.30;72.71
51099;BME280;37146;48.210;16.234;2023-03-14T11:27:34;97235.31;;;10.22;72.43
51099;BME280;37146;48.210;16.234;2023-03-14T11:30:05;97232.63;;;10.11;72.25
51099;BME280;37146;48.210;16.234;2023-03-14T11:35:41;97240.66;;;10.11;72.71
51099;BME280;37146;48.210;16.234;2023-03-14T11:40:36;97255.19;;;9.95;72.98
51099;BME280;37146;48.210;16.234;2023-03-14T11:43:17;97259.34;;;9.99;72.25
51099;BME280;37146;48.210;16.234;2023-03-14T11:45:43;97252.03;;;9.90;72.64
51099;BME280;37146;48.210;16.234;2023-03-14T11:50:55;97257.09;;;9.82;73.07
51099;BME280;37146;48.210;16.234;2023-03-14T11:53:23;97248.38;;;9.80;72.90
51099;BME280;37146;48.210;16.234;2023-03-14T11:55:53;97236.44;;;9.72;74.07
51099;BME280;37146;48.210;16.234;2023-03-14T11:58:20;97228.69;;;9.69;74.40
51099;BME280;37146;48.210;16.234;2023-03-14T12:00:46;97234.25;;;9.66;74.68
51099;BME280;37146;48.210;16.234;2023-03-14T12:03:24;97237.66;;;9.57;74.90
51099;BME280;37146;48.210;16.234;2023-03-14T12:06:00;97233.84;;;9.48;75.89
51099;BME280;37146;48.210;16.234;2023-03-14T12:10:58;97231.78;;;9.52;75.80
51099;BME280;37146;48.210;16.234;2023-03-14T12:13:28;97242.59;;;9.50;75.54
51099;BME280;37146;48.210;16.234;2023-03-14T12:15:54;97229.81;;;9.42;75.97
51099;BME280;37146;48.210;16.234;2023-03-14T12:18:27;97240.28;;;9.46;75.81
51099;BME280;37146;48.210;16.234;2023-03-14T12:20:54;97233.47;;;9.41;76.63
51099;BME280;37146;48.210;16.234;2023-03-14T12:23:19;97239.31;;;9.47;75.71
51099;BME280;37146;48.210;16.234;2023-03-14T12:25:45;97229.09;;;9.40;76.24
51099;BME280;37146;48.210;16.234;2023-03-14T12:28:21;97233.94;;;9.35;77.14
51099;BME280;37146;48.210;16.234;2023-03-14T12:30:46;97225.19;;;9.33;76.95
51099;BME280;37146;48.210;16.234;2023-03-14T12:33:19;97226.91;;;9.34;78.22
51099;BME280;37146;48.210;16.234;2023-03-14T12:35:51;97218.75;;;9.36;76.33
51099;BME280;37146;48.210;16.234;2023-03-14T12:41:22;97231.63;;;9.31;76.47
51099;BME280;37146;48.210;16.234;2023-03-14T12:43:39;97232.22;;;9.34;75.70
51099;BME280;37146;48.210;16.234;2023-03-14T12:48:43;97243.34;;;9.28;76.19
51099;BME280;37146;48.210;16.234;2023-03-14T12:51:13;97249.28;;;9.32;76.04
51099;BME280;37146;48.210;16.234;2023-03-14T12:56:48;97240.34;;;9.33;75.49
51099;BME280;37146;48.210;16.234;2023-03-14T13:01:23;97235.13;;;9.31;74.63
51099;BME280;37146;48.210;16.234;2023-03-14T13:03:53;97235.34;;;9.28;74.90
51099;BME280;37146;48.210;16.234;2023-03-14T13:12:11;97249.16;;;9.22;76.27
51099;BME280;37146;48.210;16.234;2023-03-14T13:14:41;97240.28;;;9.21;75.58
51099;BME280;37146;48.210;16.234;2023-03-14T13:17:12;97237.88;;;9.18;75.94
51099;BME280;37146;48.210;16.234;2023-03-14T13:19:38;97241.59;;;9.16;76.28
51099;BME280;37146;48.210;16.234;2023-03-14T13:22:04;97239.28;;;9.11;77.05
51099;BME280;37146;48.210;16.234;2023-03-14T13:24:32;97241.94;;;9.11;77.58
51099;BME280;37146;48.210;16.234;2023-03-14T13:26:58;97238.22;;;9.13;77.49
51099;BME280;37146;48.210;16.234;2023-03-14T13:29:30;97214.91;;;9.16;76.09
51099;BME280;37146;48.210;16.234;2023-03-14T13:31:59;97229.00;;;9.18;75.74
51099;BME280;37146;48.210;16.234;2023-03-14T13:34:28;97232.75;;;9.15;75.92
51099;BME280;37146;48.210;16.234;2023-03-14T13:36:54;97232.53;;;9.18;76.05
51099;BME280;37146;48.210;16.234;2023-03-14T13:39:21;97223.78;;;9.16;76.47
51099;BME280;37146;48.210;16.234;2023-03-14T13:41:49;97234.47;;;9.16;76.31
51099;BME280;37146;48.210;16.234;2023-03-14T13:44:37;97224.63;;;9.17;75.85
51099;BME280;37146;48.210;16.234;2023-03-14T13:47:00;97222.09;;;9.15;75.93